createdAt,value
2023-04-12T00:02:19.331Z,11.10
2023-04-12T00:04:46.415Z,11.00
2023-04-12T00:07:13.369Z,11.00
2023-04-12T00:09:40.280Z,11.00
2023-04-12T00:12:08.363Z,11.00
2023-04-12T00:14:35.205Z,11.00
2023-04-12T00:17:02.121Z,10.90
2023-04-12T00:19:31.104Z,11.00
2023-04-12T00:21:58.154Z,11.00
2023-04-12T00:24:26.847Z,11.00
2023-04-12T00:26:53.966Z,11.00
2023-04-12T00:29:21.327Z,11.00
2023-04-12T00:31:48.801Z,11.00
2023-04-12T00:34:15.977Z,11.00
2023-04-12T00:36:42.889Z,10.90
2023-04-12T00:39:10.584Z,10.90
2023-04-12T00:41:39.015Z,10.90
2023-04-12T00:44:05.897Z,10.90
2023-04-12T00:46:34.130Z,10.90
2023-04-12T00:49:02.862Z,10.80
2023-04-12T00:51:33.439Z,10.80
2023-04-12T00:54:01.528Z,10.80
2023-04-12T00:56:29.252Z,10.80
2023-04-12T00:58:57.451Z,10.80
2023-04-12T01:01:24.435Z,10.70
2023-04-12T01:03:53.872Z,10.70
2023-04-12T01:06:29.902Z,10.70
2023-04-12T01:09:15.610Z,10.70
2023-04-12T01:11:48.064Z,10.70
2023-04-12T01:14:35.619Z,10.60
2023-04-12T01:17:07.467Z,10.60
2023-04-12T01:20:00.997Z,10.60
2023-04-12T01:22:53.396Z,10.60
2023-04-12T01:25:45.871Z,10.60
2023-04-12T01:28:16.369Z,10.60
2023-04-12T01:30:44.332Z,10.50
2023-04-12T01:33:13.540Z,10.50
2023-04-12T01:35:41.786Z,10.50
2023-04-12T01:38:10.089Z,10.50
2023-04-12T01:40:41.964Z,10.50
2023-04-12T01:43:13.764Z,10.50
2023-04-12T01:45:40.792Z,10.50
2023-04-12T01:48:09.735Z,10.50
2023-04-12T01:51:03.984Z,10.40
2023-04-12T01:53:50.042Z,10.40
2023-04-12T01:56:19.466Z,10.40
2023-04-12T01:58:48.729Z,10.40
2023-04-12T02:01:17.945Z,10.40
2023-04-12T02:03:49.748Z,10.40
2023-04-12T02:06:20.821Z,10.40
2023-04-12T02:08:48.157Z,10.40
2023-04-12T02:11:15.353Z,10.40
2023-04-12T02:13:44.823Z,10.40
2023-04-12T02:16:14.004Z,10.40
2023-04-12T02:18:42.261Z,10.40
2023-04-12T02:21:11.115Z,10.40
2023-04-12T02:23:38.005Z,10.40
2023-04-12T02:26:06.632Z,10.40
2023-04-12T02:28:34.753Z,10.40
2023-04-12T02:31:02.251Z,10.40
2023-04-12T02:33:31.748Z,10.40
2023-04-12T02:36:02.614Z,10.40
2023-04-12T02:38:30.287Z,10.40
2023-04-12T02:41:01.516Z,10.30
2023-04-12T02:43:29.176Z,10.40
2023-04-12T02:46:02.092Z,10.30
2023-04-12T02:48:32.913Z,10.30
2023-04-12T02:51:00.507Z,10.30
2023-04-12T02:53:29.611Z,10.30
2023-04-12T02:56:12.085Z,10.30
2023-04-12T02:58:39.137Z,10.30
2023-04-12T03:01:07.601Z,10.30
2023-04-12T03:03:48.373Z,10.30
2023-04-12T03:06:32.087Z,10.30
2023-04-12T03:09:00.807Z,10.30
2023-04-12T03:11:27.737Z,10.10
2023-04-12T03:13:55.373Z,10.10
2023-04-12T03:16:25.832Z,10.10
2023-04-12T03:19:01.420Z,10.20
2023-04-12T03:21:29.192Z,10.20
2023-04-12T03:23:57.335Z,10.20
2023-04-12T03:26:26.585Z,10.20
2023-04-12T03:29:10.045Z,10.20
2023-04-12T03:31:40.309Z,10.30
2023-04-12T03:34:08.781Z,10.30
2023-04-12T03:36:41.575Z,10.20
2023-04-12T03:39:29.414Z,10.20
2023-04-12T03:41:56.512Z,10.30
2023-04-12T03:44:28.238Z,10.30
2023-04-12T03:46:57.453Z,10.30
2023-04-12T03:49:25.456Z,10.30
2023-04-12T03:51:52.985Z,10.30
2023-04-12T03:54:20.763Z,10.30
2023-04-12T03:56:56.747Z,10.40
2023-04-12T03:59:29.238Z,10.30
2023-04-12T04:01:57.425Z,10.30
2023-04-12T04:04:27.189Z,9.90
2023-04-12T04:06:57.679Z,10.40
2023-04-12T04:09:26.181Z,10.40
2023-04-12T04:11:53.075Z,10.40
2023-04-12T04:14:21.709Z,10.30
2023-04-12T04:16:49.127Z,10.40
2023-04-12T04:19:17.543Z,10.40
2023-04-12T04:21:47.511Z,10.30
2023-04-12T04:24:14.556Z,10.30
2023-04-12T04:26:46.280Z,10.30
2023-04-12T04:29:25.977Z,10.40
2023-04-12T04:31:54.997Z,10.40
2023-04-12T04:34:23.199Z,10.40
2023-04-12T04:36:52.829Z,10.40
2023-04-12T04:39:27.200Z,10.40
2023-04-12T04:41:55.986Z,10.40
2023-04-12T04:44:31.832Z,10.40
2023-04-12T04:47:00.819Z,10.40
2023-04-12T04:49:28.320Z,10.40
2023-04-12T04:52:02.304Z,10.40
2023-04-12T04:54:29.183Z,10.40
2023-04-12T04:56:57.296Z,10.30
2023-04-12T04:59:24.692Z,10.30
2023-04-12T05:01:55.153Z,10.40
2023-04-12T05:04:22.081Z,10.40
2023-04-12T05:06:49.693Z,10.40
2023-04-12T05:09:20.697Z,10.40
2023-04-12T05:11:55.303Z,10.40
2023-04-12T05:14:23.308Z,10.40
2023-04-12T05:16:51.149Z,10.40
2023-04-12T05:19:18.140Z,10.40
2023-04-12T05:21:45.021Z,10.40
2023-04-12T05:24:12.258Z,10.40
2023-04-12T05:26:40.969Z,10.50
2023-04-12T05:29:13.052Z,10.50
2023-04-12T05:31:41.586Z,10.30
2023-04-12T05:34:15.326Z,10.20
2023-04-12T05:36:51.354Z,10.20
2023-04-12T05:39:20.518Z,10.20
2023-04-12T05:41:48.675Z,10.20
2023-04-12T05:44:16.259Z,10.30
2023-04-12T05:46:43.161Z,10.20
2023-04-12T05:49:10.170Z,10.00
2023-04-12T05:51:41.217Z,10.10
2023-04-12T05:54:15.801Z,10.20
2023-04-12T05:56:42.782Z,10.30
2023-04-12T05:59:11.455Z,10.40
2023-04-12T06:01:44.599Z,10.20
2023-04-12T06:04:12.017Z,10.10
2023-04-12T06:06:39.162Z,10.20
2023-04-12T06:09:06.112Z,10.30
2023-04-12T06:11:36.583Z,10.40
2023-04-12T06:14:03.573Z,10.40
2023-04-12T06:16:30.732Z,10.40
2023-04-12T06:18:58.131Z,10.20
2023-04-12T06:21:27.096Z,10.20
2023-04-12T06:23:54.145Z,10.30
2023-04-12T06:26:21.094Z,10.30
2023-04-12T06:28:48.313Z,10.50
2023-04-12T06:31:17.139Z,10.60
2023-04-12T06:33:44.696Z,10.70
2023-04-12T06:36:12.570Z,10.80
2023-04-12T06:38:39.494Z,10.90
2023-04-12T06:41:06.964Z,10.90
2023-04-12T06:43:33.869Z,11.00
2023-04-12T06:46:03.034Z,11.00
2023-04-12T06:48:30.097Z,11.10
2023-04-12T06:50:57.171Z,11.10
2023-04-12T06:53:24.069Z,11.10
2023-04-12T06:55:51.323Z,11.20
2023-04-12T06:58:18.249Z,11.20
2023-04-12T07:00:45.288Z,11.30
2023-04-12T07:03:12.320Z,11.30
2023-04-12T07:05:39.408Z,11.20
2023-04-12T07:08:07.573Z,11.20
2023-04-12T07:10:36.132Z,11.20
2023-04-12T07:13:07.080Z,11.20
2023-04-12T07:15:34.284Z,11.10
2023-04-12T07:18:01.127Z,11.20
2023-04-12T07:20:28.060Z,11.30
2023-04-12T07:22:54.960Z,11.40
2023-04-12T07:25:21.855Z,11.40
2023-04-12T07:27:49.909Z,11.30
2023-04-12T07:30:18.655Z,11.30
2023-04-12T07:32:45.992Z,11.50
2023-04-12T07:35:12.947Z,11.50
2023-04-12T07:37:39.894Z,11.50
2023-04-12T07:40:07.637Z,11.50
2023-04-12T07:42:34.588Z,11.50
2023-04-12T07:45:01.705Z,11.60
2023-04-12T07:47:28.698Z,11.60
2023-04-12T07:49:56.015Z,11.60
2023-04-12T07:52:22.888Z,11.70
2023-04-12T07:54:49.854Z,11.70
2023-04-12T07:57:16.798Z,11.70
2023-04-12T07:59:43.668Z,11.70
2023-04-12T08:02:10.672Z,11.60
2023-04-12T08:04:38.286Z,11.70
2023-04-12T08:07:05.340Z,11.70
2023-04-12T08:09:32.418Z,11.80
2023-04-12T08:11:59.341Z,11.70
2023-04-12T08:14:26.341Z,11.70
2023-04-12T08:16:53.261Z,11.80
2023-04-12T08:19:20.605Z,11.90
2023-04-12T08:21:47.478Z,11.90
2023-04-12T08:24:17.369Z,12.00
2023-04-12T08:26:44.227Z,12.00
2023-04-12T08:29:11.341Z,12.00
2023-04-12T08:31:38.817Z,12.10
2023-04-12T08:34:06.308Z,12.20
2023-04-12T08:39:53.697Z,12.30
2023-04-12T08:42:22.172Z,12.40
2023-04-12T08:44:51.195Z,12.30
2023-04-12T08:47:18.289Z,12.40
2023-04-12T08:49:45.906Z,12.40
2023-04-12T08:52:13.834Z,12.40
2023-04-12T08:54:40.770Z,12.40
2023-04-12T08:57:09.000Z,12.60
2023-04-12T08:59:42.605Z,12.30
2023-04-12T09:02:10.560Z,12.20
2023-04-12T09:04:48.777Z,12.10
2023-04-12T09:07:16.749Z,12.00
2023-04-12T09:09:47.621Z,12.00
2023-04-12T09:12:17.782Z,12.00
2023-04-12T09:14:47.828Z,12.10
2023-04-12T09:17:25.077Z,11.90
2023-04-12T09:19:53.324Z,11.00
2023-04-12T09:22:32.795Z,11.80
2023-04-12T09:24:59.654Z,11.80
2023-04-12T09:27:28.513Z,11.80
2023-04-12T09:30:16.492Z,11.80
2023-04-12T09:32:43.885Z,11.70
2023-04-12T09:35:11.377Z,11.80
2023-04-12T09:37:39.176Z,12.40
2023-04-12T09:40:09.374Z,11.70
2023-04-12T09:42:56.693Z,11.70
2023-04-12T09:45:26.170Z,11.60
2023-04-12T09:47:54.912Z,11.60
2023-04-12T09:50:29.871Z,11.90
2023-04-12T09:52:57.837Z,11.70
2023-04-12T09:55:28.973Z,11.70
2023-04-12T09:57:56.643Z,11.60
2023-04-12T10:00:26.958Z,11.70
2023-04-12T10:02:55.836Z,11.70
2023-04-12T10:05:28.107Z,11.80
2023-04-12T10:07:58.706Z,12.00
2023-04-12T10:10:29.405Z,11.80
2023-04-12T10:12:57.078Z,11.90
2023-04-12T10:15:25.723Z,12.80
2023-04-12T10:17:58.970Z,12.00
2023-04-12T10:20:29.284Z,12.20
2023-04-12T10:22:59.759Z,12.30
2023-04-12T10:25:31.214Z,12.10
2023-04-12T10:28:14.578Z,12.10
2023-04-12T10:30:42.951Z,12.20
2023-04-12T10:33:12.915Z,12.30
2023-04-12T10:35:51.726Z,12.30
2023-04-12T10:38:20.810Z,12.20
2023-04-12T10:41:14.103Z,12.30
2023-04-12T10:43:44.855Z,12.30
2023-04-12T10:46:39.164Z,12.40
2023-04-12T10:49:13.767Z,12.60
2023-04-12T10:52:04.404Z,12.60
2023-04-12T10:54:35.728Z,13.00
2023-04-12T10:57:04.434Z,13.70
2023-04-12T10:59:51.613Z,12.80
2023-04-12T11:02:18.778Z,12.80
2023-04-12T11:05:10.249Z,12.80
2023-04-12T11:08:00.812Z,12.80
2023-04-12T11:10:47.022Z,12.80
2023-04-12T11:13:36.058Z,13.80
2023-04-12T11:16:07.932Z,12.90
2023-04-12T11:18:38.068Z,13.00
2023-04-12T11:21:05.843Z,13.00
2023-04-12T11:23:36.217Z,13.00
2023-04-12T11:26:04.391Z,14.00
2023-04-12T11:28:33.128Z,13.10
2023-04-12T11:31:02.951Z,13.40
2023-04-12T11:33:39.789Z,13.30
2023-04-12T11:36:14.482Z,13.30
2023-04-12T11:38:41.651Z,13.50
2023-04-12T11:41:09.738Z,13.50
2023-04-12T11:43:38.889Z,13.60
2023-04-12T11:46:06.472Z,13.50
2023-04-12T11:48:33.771Z,13.50
2023-04-12T11:51:11.120Z,13.40
2023-04-12T11:53:39.481Z,13.50
2023-04-12T11:56:06.886Z,13.90
2023-04-12T11:58:33.780Z,13.70
2023-04-12T12:01:01.148Z,13.60
2023-04-12T12:03:28.832Z,13.60
2023-04-12T12:05:56.586Z,13.80
2023-04-12T12:08:24.747Z,13.90
2023-04-12T12:11:06.435Z,14.00
2023-04-12T12:13:48.961Z,13.90
2023-04-12T12:16:19.791Z,14.00
2023-04-12T12:18:52.315Z,13.90
2023-04-12T12:21:20.146Z,13.90
2023-04-12T12:23:47.830Z,14.00
2023-04-12T12:26:30.673Z,14.00
2023-04-12T12:29:02.382Z,14.10
2023-04-12T12:31:32.054Z,14.10
2023-04-12T12:34:02.726Z,14.40
2023-04-12T12:36:36.185Z,14.10
2023-04-12T12:39:15.473Z,14.20
2023-04-12T12:41:43.433Z,14.30
2023-04-12T12:44:12.291Z,14.30
2023-04-12T12:49:09.172Z,14.50
2023-04-12T12:51:36.877Z,15.40
2023-04-12T12:54:05.466Z,14.40
2023-04-12T12:56:32.718Z,14.40
2023-04-12T12:58:59.792Z,15.20
2023-04-12T13:01:27.676Z,16.60
2023-04-12T13:03:54.787Z,17.40
2023-04-12T13:06:22.469Z,17.30
2023-04-12T13:08:49.323Z,16.80
2023-04-12T13:11:20.463Z,16.20
2023-04-12T13:13:47.677Z,15.80
2023-04-12T13:16:15.837Z,15.50
2023-04-12T13:18:44.503Z,15.30
2023-04-12T13:21:11.410Z,15.20
2023-04-12T13:23:38.353Z,15.10
2023-04-12T13:26:05.852Z,15.00
2023-04-12T13:28:33.181Z,15.00
2023-04-12T13:31:00.282Z,15.00
2023-04-12T13:33:27.092Z,15.00
2023-04-12T13:35:53.972Z,15.00
2023-04-12T13:38:21.015Z,15.00
2023-04-12T13:40:47.918Z,14.90
2023-04-12T13:43:15.286Z,14.90
2023-04-12T13:45:42.180Z,14.90
2023-04-12T13:48:09.365Z,14.90
2023-04-12T13:50:36.679Z,15.00
2023-04-12T13:53:03.542Z,14.80
2023-04-12T13:55:30.460Z,14.80
2023-04-12T13:57:58.274Z,14.90
2023-04-12T14:00:26.162Z,15.00
2023-04-12T14:02:53.197Z,14.90
2023-04-12T14:05:21.530Z,14.90
2023-04-12T14:07:49.867Z,14.90
2023-04-12T14:10:16.776Z,14.90
2023-04-12T14:12:43.694Z,14.90
2023-04-12T14:15:11.365Z,14.90
2023-04-12T14:17:38.389Z,14.90
2023-04-12T14:20:08.883Z,14.90
2023-04-12T14:22:35.956Z,14.90
2023-04-12T14:25:03.377Z,14.90
2023-04-12T14:27:30.750Z,14.90
2023-04-12T14:29:57.611Z,15.00
2023-04-12T14:32:25.121Z,15.00
2023-04-12T14:34:52.159Z,14.90
2023-04-12T14:37:19.208Z,14.90
2023-04-12T14:39:46.103Z,14.90
2023-04-12T14:42:13.262Z,14.90
2023-04-12T14:44:40.392Z,14.70
2023-04-12T14:47:08.535Z,14.30
2023-04-12T14:49:35.484Z,14.50
2023-04-12T14:52:02.566Z,13.20
2023-04-12T14:54:29.556Z,12.30
2023-04-12T14:56:57.583Z,12.40
2023-04-12T14:59:25.931Z,12.10
2023-04-12T15:01:53.650Z,12.10
2023-04-12T15:04:21.033Z,12.10
2023-04-12T15:06:50.500Z,12.00
2023-04-12T15:09:21.312Z,12.00
2023-04-12T15:11:54.815Z,12.10
2023-04-12T15:14:23.081Z,12.10
2023-04-12T15:16:50.340Z,12.00
2023-04-12T15:19:23.944Z,12.00
2023-04-12T15:21:52.359Z,12.50
2023-04-12T15:24:19.926Z,12.10
2023-04-12T15:26:48.753Z,12.10
2023-04-12T15:29:16.780Z,12.20
2023-04-12T15:31:45.635Z,12.20
2023-04-12T15:34:16.238Z,12.00
2023-04-12T15:36:44.613Z,11.80
2023-04-12T15:39:13.600Z,11.90
2023-04-12T15:41:41.816Z,12.40
2023-04-12T15:44:09.665Z,11.90
2023-04-12T15:46:36.698Z,11.90
2023-04-12T15:49:03.893Z,11.60
2023-04-12T15:51:32.187Z,11.60
2023-04-12T15:53:59.473Z,11.20
2023-04-12T15:56:26.587Z,11.20
2023-04-12T15:58:57.646Z,11.30
2023-04-12T16:01:25.480Z,11.30
2023-04-12T16:03:53.305Z,11.10
2023-04-12T16:06:20.880Z,11.70
2023-04-12T16:08:51.645Z,11.30
2023-04-12T16:11:19.952Z,11.40
2023-04-12T16:13:48.522Z,12.00
2023-04-12T16:16:20.093Z,11.50
2023-04-12T16:18:47.860Z,11.50
2023-04-12T16:21:17.020Z,11.50
2023-04-12T16:23:44.448Z,11.60
2023-04-12T16:26:14.085Z,11.50
2023-04-12T16:28:42.939Z,11.50
2023-04-12T16:31:10.581Z,12.70
2023-04-12T16:33:37.751Z,11.70
2023-04-12T16:36:04.849Z,11.50
2023-04-12T16:38:32.200Z,11.50
2023-04-12T16:40:59.200Z,11.60
2023-04-12T16:43:26.543Z,11.60
2023-04-12T16:45:53.492Z,11.80
2023-04-12T16:48:23.521Z,12.10
2023-04-12T16:50:50.400Z,11.40
2023-04-12T16:53:17.432Z,11.50
2023-04-12T16:55:47.251Z,11.50
2023-04-12T16:58:15.092Z,11.60
2023-04-12T17:00:45.330Z,12.10
2023-04-12T17:03:12.937Z,11.80
2023-04-12T17:05:40.770Z,11.50
2023-04-12T17:08:09.761Z,11.50
2023-04-12T17:10:46.236Z,11.50
2023-04-12T17:13:18.625Z,11.50
2023-04-12T17:15:48.304Z,11.50
2023-04-12T17:18:15.850Z,11.50
2023-04-12T17:20:43.049Z,11.50
2023-04-12T17:23:10.341Z,11.50
2023-04-12T17:25:39.174Z,11.90
2023-04-12T17:28:07.968Z,11.60
2023-04-12T17:30:35.041Z,11.50
2023-04-12T17:33:02.121Z,11.50
2023-04-12T17:35:29.545Z,11.60
2023-04-12T17:37:56.860Z,11.50
2023-04-12T17:40:24.159Z,11.50
2023-04-12T17:42:51.686Z,11.60
2023-04-12T17:45:22.028Z,11.50
2023-04-12T17:47:50.345Z,11.50
2023-04-12T17:50:19.801Z,12.70
2023-04-12T17:52:47.520Z,11.40
2023-04-12T17:55:14.545Z,11.30
2023-04-12T17:57:44.413Z,11.40
2023-04-12T18:00:12.156Z,11.40
2023-04-12T18:02:45.970Z,11.40
2023-04-12T18:05:13.724Z,11.50
2023-04-12T18:07:42.487Z,11.40
2023-04-12T18:10:12.620Z,11.30
2023-04-12T18:12:40.981Z,11.20
2023-04-12T18:15:08.631Z,11.20
2023-04-12T18:17:36.222Z,11.20
2023-04-12T18:20:09.759Z,11.10
2023-04-12T18:22:38.244Z,11.10
2023-04-12T18:25:06.774Z,11.50
2023-04-12T18:27:34.040Z,11.00
2023-04-12T18:30:03.635Z,11.00
2023-04-12T18:32:31.011Z,11.00
2023-04-12T18:34:57.993Z,11.30
2023-04-12T18:37:25.597Z,10.90
2023-04-12T18:39:53.506Z,10.90
2023-04-12T18:42:20.634Z,10.90
2023-04-12T18:44:47.667Z,11.10
2023-04-12T18:47:14.982Z,11.40
2023-04-12T18:49:42.133Z,11.60
2023-04-12T18:52:09.513Z,10.90
2023-04-12T18:54:37.204Z,10.80
2023-04-12T18:57:04.325Z,10.80
2023-04-12T18:59:34.962Z,10.80
2023-04-12T19:02:01.985Z,10.90
2023-04-12T19:04:28.918Z,10.90
2023-04-12T19:06:56.493Z,10.90
2023-04-12T19:09:27.896Z,10.70
2023-04-12T19:11:56.593Z,10.70
2023-04-12T19:14:23.949Z,11.30
2023-04-12T19:16:53.243Z,10.70
2023-04-12T19:19:20.341Z,10.80
2023-04-12T19:21:47.389Z,11.20
2023-04-12T19:24:14.522Z,10.80
2023-04-12T19:26:46.928Z,10.80
2023-04-12T19:29:15.920Z,10.70
2023-04-12T19:31:43.849Z,11.40
2023-04-12T19:34:12.040Z,10.70
2023-04-12T19:36:39.102Z,10.70
2023-04-12T19:39:07.077Z,10.60
2023-04-12T19:41:34.100Z,10.60
2023-04-12T19:44:01.214Z,11.00
2023-04-12T19:46:29.661Z,10.90
2023-04-12T19:49:00.480Z,10.50
2023-04-12T19:51:27.475Z,10.30
2023-04-12T19:53:54.837Z,10.00
2023-04-12T19:56:23.765Z,10.30
2023-04-12T19:58:50.831Z,9.90
2023-04-12T20:01:19.520Z,9.70
2023-04-12T20:03:46.939Z,10.50
2023-04-12T20:06:13.852Z,9.90
2023-04-12T20:08:40.841Z,10.30
2023-04-12T20:11:09.980Z,9.70
2023-04-12T20:13:37.263Z,10.10
2023-04-12T20:16:05.319Z,11.00
2023-04-12T20:18:34.991Z,9.80
2023-04-12T20:21:01.971Z,9.70
2023-04-12T20:23:32.037Z,9.80
2023-04-12T20:25:58.869Z,10.10
2023-04-12T20:28:26.257Z,9.90
2023-04-12T20:30:54.008Z,9.90
2023-04-12T20:33:22.163Z,9.90
2023-04-12T20:35:51.627Z,9.80
2023-04-12T20:38:20.429Z,9.80
2023-04-12T20:40:47.515Z,9.80
2023-04-12T20:43:16.627Z,10.60
2023-04-12T20:45:43.913Z,10.20
2023-04-12T20:48:12.552Z,10.30
2023-04-12T20:50:41.021Z,9.70
2023-04-12T20:53:09.769Z,9.90
2023-04-12T20:55:38.197Z,9.50
2023-04-12T20:58:08.485Z,9.60
2023-04-12T21:00:35.588Z,9.60
2023-04-12T21:03:05.811Z,9.60
2023-04-12T21:05:35.814Z,9.60
2023-04-12T21:08:02.780Z,10.40
2023-04-12T21:10:30.331Z,9.60
2023-04-12T21:12:58.422Z,9.80
2023-04-12T21:15:25.452Z,9.70
2023-04-12T21:17:55.367Z,10.90
2023-04-12T21:20:22.453Z,9.60
2023-04-12T21:22:51.148Z,9.60
2023-04-12T21:25:18.129Z,9.60
2023-04-12T21:27:47.116Z,10.80
2023-04-12T21:30:14.397Z,10.40
2023-04-12T21:32:43.732Z,9.60
2023-04-12T21:35:11.416Z,10.50
2023-04-12T21:37:39.196Z,9.90
2023-04-12T21:40:09.800Z,9.60
2023-04-12T21:42:37.562Z,9.50
2023-04-12T21:45:05.407Z,9.70
2023-04-12T21:47:32.950Z,9.50
2023-04-12T21:50:00.817Z,10.60
2023-04-12T21:52:28.572Z,9.80
2023-04-12T21:54:55.873Z,9.40
2023-04-12T21:57:22.922Z,9.80
2023-04-12T21:59:50.958Z,10.60
2023-04-12T22:02:18.056Z,9.40
2023-04-12T22:04:45.577Z,10.50
2023-04-12T22:07:13.437Z,9.10
2023-04-12T22:09:41.544Z,9.70
2023-04-12T22:12:12.342Z,10.40
2023-04-12T22:14:46.512Z,9.40
2023-04-12T22:17:14.858Z,9.30
2023-04-12T22:19:42.159Z,9.50
2023-04-12T22:22:14.279Z,9.50
2023-04-12T22:24:42.410Z,10.10
2023-04-12T22:27:09.431Z,9.20
2023-04-12T22:29:37.760Z,9.30
2023-04-12T22:32:05.143Z,9.20
2023-04-12T22:34:32.498Z,9.20
2023-04-12T22:37:00.155Z,10.40
2023-04-12T22:39:28.385Z,9.20
2023-04-12T22:41:57.480Z,9.20
2023-04-12T22:44:25.878Z,9.20
2023-04-12T22:46:54.709Z,9.10
2023-04-12T22:49:28.148Z,9.20
2023-04-12T22:51:55.925Z,10.10
2023-04-12T22:54:26.353Z,9.10
2023-04-12T22:56:53.426Z,9.30
2023-04-12T22:59:22.996Z,9.00
2023-04-12T23:01:51.431Z,9.70
2023-04-12T23:04:18.589Z,9.00
2023-04-12T23:06:46.780Z,9.00
2023-04-12T23:09:13.858Z,9.00
2023-04-12T23:11:42.075Z,9.00
2023-04-12T23:14:10.271Z,9.10
2023-04-12T23:16:42.572Z,9.70
2023-04-12T23:19:14.750Z,9.30
2023-04-12T23:21:42.195Z,9.60
2023-04-12T23:24:11.493Z,9.30
2023-04-12T23:26:38.458Z,8.90
2023-04-12T23:29:05.448Z,8.80
2023-04-12T23:31:33.641Z,8.80
2023-04-12T23:34:05.333Z,8.80
2023-04-12T23:36:33.375Z,8.70
2023-04-12T23:39:00.805Z,9.60
2023-04-12T23:41:31.706Z,9.60
2023-04-12T23:44:00.006Z,10.00
2023-04-12T23:46:27.381Z,9.10
2023-04-12T23:48:54.535Z,8.70
2023-04-12T23:51:22.796Z,9.10
2023-04-12T23:53:51.145Z,9.10
2023-04-12T23:56:18.227Z,9.80
2023-04-12T23:58:45.260Z,8.80
